sensor_id;sensor_type;location;lat;lon;timestamp;pressure;altitude;pressure_sealevel;temperature;humidity
57904;BME280;43720;47.462;19.030;2022-09-09T03:59:02;100169.44;;;16.96;100.00
57904;BME280;43720;47.462;19.030;2022-09-09T04:02:04;100160.59;;;16.98;100.00
57904;BME280;43720;47.462;19.030;2022-09-09T04:05:07;100157.12;;;16.96;100.00
57904;BME280;43720;47.462;19.030;2022-09-09T04:08:09;100157.16;;;16.92;100.00
57904;BME280;43720;47.462;19.030;2022-09-09T04:11:14;100155.63;;;16.78;100.00
57904;BME280;43720;47.462;19.030;2022-09-09T04:14:17;100156.44;;;16.82;100.00
57904;BME280;43720;47.462;19.030;2022-09-09T04:17:20;100153.91;;;16.74;100.00
57904;BME280;43720;47.462;19.030;2022-09-09T04:20:23;100160.22;;;16.62;100.00
57904;BME280;43720;47.462;19.030;2022-09-09T04:23:27;100161.00;;;16.69;100.00
57904;BME280;43720;47.462;19.030;2022-09-09T04:26:32;100163.78;;;16.58;100.00
57904;BME280;43720;47.462;19.030;2022-09-09T04:29:35;100162.81;;;16.64;100.00
57904;BME280;43720;47.462;19.030;2022-09-09T04:32:37;100161.97;;;16.60;100.00
57904;BME280;43720;47.462;19.030;2022-09-09T04:35:44;100158.47;;;16.61;100.00
57904;BME280;43720;47.462;19.030;2022-09-09T04:38:47;100162.94;;;16.55;100.00
57904;BME280;43720;47.462;19.030;2022-09-09T04:41:51;100157.72;;;16.52;100.00
57904;BME280;43720;47.462;19.030;2022-09-09T04:44:55;100164.69;;;16.57;100.00
57904;BME280;43720;47.462;19.030;2022-09-09T04:47:58;100151.38;;;16.63;100.00
57904;BME280;43720;47.462;19.030;2022-09-09T04:51:06;100147.91;;;16.61;100.00
57904;BME280;43720;47.462;19.030;2022-09-09T04:54:09;100146.16;;;16.60;100.00
57904;BME280;43720;47.462;19.030;2022-09-09T04:57:16;100152.44;;;16.52;100.00
57904;BME280;43720;47.462;19.030;2022-09-09T05:00:21;100156.78;;;16.56;100.00
57904;BME280;43720;47.462;19.030;2022-09-09T05:03:23;100155.03;;;16.55;100.00
57904;BME280;43720;47.462;19.030;2022-09-09T05:06:26;100154.09;;;16.59;100.00
57904;BME280;43720;47.462;19.030;2022-09-09T05:09:28;100162.72;;;16.72;100.00
57904;BME280;43720;47.462;19.030;2022-09-09T05:12:31;100163.41;;;16.87;100.00
57904;BME280;43720;47.462;19.030;2022-09-09T05:15:33;100164.25;;;16.88;100.00
57904;BME280;43720;47.462;19.030;2022-09-09T05:18:38;100166.78;;;16.97;100.00
57904;BME280;43720;47.462;19.030;2022-09-09T05:21:40;100161.31;;;17.09;100.00
57904;BME280;43720;47.462;19.030;2022-09-09T05:24:43;100167.34;;;17.18;100.00
57904;BME280;43720;47.462;19.030;2022-09-09T05:27:46;100167.22;;;17.27;100.00
57904;BME280;43720;47.462;19.030;2022-09-09T05:31:00;100168.81;;;17.34;100.00
57904;BME280;43720;47.462;19.030;2022-09-09T05:34:04;100169.66;;;17.39;100.00
57904;BME280;43720;47.462;19.030;2022-09-09T05:37:06;100173.06;;;17.44;100.00
57904;BME280;43720;47.462;19.030;2022-09-09T05:40:09;100174.84;;;17.42;100.00
57904;BME280;43720;47.462;19.030;2022-09-09T05:43:14;100176.50;;;17.49;100.00
57904;BME280;43720;47.462;19.030;2022-09-09T05:46:21;100179.00;;;17.57;100.00
57904;BME280;43720;47.462;19.030;2022-09-09T05:49:25;100180.47;;;17.73;100.00
57904;BME280;43720;47.462;19.030;2022-09-09T05:52:27;100188.44;;;17.72;100.00
57904;BME280;43720;47.462;19.030;2022-09-09T05:55:30;100184.00;;;17.75;100.00
57904;BME280;43720;47.462;19.030;2022-09-09T05:58:34;100183.88;;;17.83;100.00
57904;BME280;43720;47.462;19.030;2022-09-09T06:01:37;100178.50;;;17.88;100.00
57904;BME280;43720;47.462;19.030;2022-09-09T06:04:42;100175.75;;;17.94;100.00
57904;BME280;43720;47.462;19.030;2022-09-09T06:07:46;100176.56;;;17.96;100.00
57904;BME280;43720;47.462;19.030;2022-09-09T06:10:48;100175.56;;;18.04;100.00
57904;BME280;43720;47.462;19.030;2022-09-09T06:13:50;100179.56;;;18.24;100.00
57904;BME280;43720;47.462;19.030;2022-09-09T06:16:56;100181.97;;;18.36;100.00
57904;BME280;43720;47.462;19.030;2022-09-09T06:19:59;100181.72;;;18.47;100.00
57904;BME280;43720;47.462;19.030;2022-09-09T06:23:03;100182.38;;;18.58;100.00
57904;BME280;43720;47.462;19.030;2022-09-09T06:26:17;100181.44;;;18.61;100.00
57904;BME280;43720;47.462;19.030;2022-09-09T06:29:20;100183.19;;;18.62;100.00
57904;BME280;43720;47.462;19.030;2022-09-09T06:32:22;100193.59;;;18.69;100.00
57904;BME280;43720;47.462;19.030;2022-09-09T06:35:25;100189.78;;;18.84;100.00
57904;BME280;43720;47.462;19.030;2022-09-09T06:38:27;100189.56;;;18.93;97.81
57904;BME280;43720;47.462;19.030;2022-09-09T06:41:32;100180.66;;;18.97;97.34
57904;BME280;43720;47.462;19.030;2022-09-09T06:44:35;100177.75;;;19.08;95.81
57904;BME280;43720;47.462;19.030;2022-09-09T06:47:37;100169.78;;;19.10;90.24
57904;BME280;43720;47.462;19.030;2022-09-09T06:50:39;100172.94;;;19.24;90.24
57904;BME280;43720;47.462;19.030;2022-09-09T06:53:43;100180.88;;;19.24;88.25
57904;BME280;43720;47.462;19.030;2022-09-09T06:56:47;100182.66;;;19.25;89.30
57904;BME280;43720;47.462;19.030;2022-09-09T06:59:50;100182.41;;;19.34;92.07
57904;BME280;43720;47.462;19.030;2022-09-09T07:02:53;100190.13;;;19.43;89.83
57904;BME280;43720;47.462;19.030;2022-09-09T07:05:57;100188.88;;;19.60;88.85
57904;BME280;43720;47.462;19.030;2022-09-09T07:09:02;100194.19;;;19.58;93.46
57904;BME280;43720;47.462;19.030;2022-09-09T07:12:07;100190.91;;;19.48;92.83
57904;BME280;43720;47.462;19.030;2022-09-09T07:15:10;100189.31;;;19.41;92.03
57904;BME280;43720;47.462;19.030;2022-09-09T07:18:15;100201.81;;;19.36;91.74
57904;BME280;43720;47.462;19.030;2022-09-09T07:21:18;100208.38;;;19.20;95.90
57904;BME280;43720;47.462;19.030;2022-09-09T07:24:21;100206.50;;;19.25;97.58
57904;BME280;43720;47.462;19.030;2022-09-09T07:27:23;100205.34;;;19.37;95.44
57904;BME280;43720;47.462;19.030;2022-09-09T07:30:26;100199.50;;;19.58;89.62
57904;BME280;43720;47.462;19.030;2022-09-09T07:33:30;100196.69;;;19.66;88.78
57904;BME280;43720;47.462;19.030;2022-09-09T07:36:35;100200.47;;;19.54;90.68
57904;BME280;43720;47.462;19.030;2022-09-09T07:39:38;100212.47;;;19.70;91.66
57904;BME280;43720;47.462;19.030;2022-09-09T07:42:41;100203.28;;;19.84;89.83
57904;BME280;43720;47.462;19.030;2022-09-09T07:45:43;100206.87;;;19.83;89.16
57904;BME280;43720;47.462;19.030;2022-09-09T07:48:48;100207.44;;;19.94;88.31
57904;BME280;43720;47.462;19.030;2022-09-09T07:51:54;100213.37;;;20.03;87.52
57904;BME280;43720;47.462;19.030;2022-09-09T07:54:56;100209.47;;;20.17;86.78
57904;BME280;43720;47.462;19.030;2022-09-09T07:57:59;100213.44;;;20.33;84.85
57904;BME280;43720;47.462;19.030;2022-09-09T08:01:16;100203.63;;;20.35;83.38
57904;BME280;43720;47.462;19.030;2022-09-09T08:04:23;100206.72;;;20.52;85.85
57904;BME280;43720;47.462;19.030;2022-09-09T08:07:27;100202.00;;;20.62;80.47
57904;BME280;43720;47.462;19.030;2022-09-09T08:10:30;100193.94;;;20.65;75.34
57904;BME280;43720;47.462;19.030;2022-09-09T08:13:36;100195.28;;;20.80;74.10
57904;BME280;43720;47.462;19.030;2022-09-09T08:16:45;100193.97;;;20.93;73.11
57904;BME280;43720;47.462;19.030;2022-09-09T08:19:48;100188.09;;;21.12;73.75
57904;BME280;43720;47.462;19.030;2022-09-09T08:22:51;100190.44;;;21.21;66.83
57904;BME280;43720;47.462;19.030;2022-09-09T08:25:53;100198.69;;;21.41;70.87
57904;BME280;43720;47.462;19.030;2022-09-09T08:28:57;100198.38;;;21.51;68.70
57904;BME280;43720;47.462;19.030;2022-09-09T08:32:00;100195.19;;;21.66;65.45
57904;BME280;43720;47.462;19.030;2022-09-09T08:35:04;100184.38;;;21.70;67.33
57904;BME280;43720;47.462;19.030;2022-09-09T08:38:09;100183.78;;;21.87;65.83
57904;BME280;43720;47.462;19.030;2022-09-09T08:41:30;100191.88;;;22.09;65.13
57904;BME280;43720;47.462;19.030;2022-09-09T08:48:19;100184.41;;;22.20;62.55
57904;BME280;43720;47.462;19.030;2022-09-09T08:51:27;100180.81;;;22.21;58.70
57904;BME280;43720;47.462;19.030;2022-09-09T08:54:32;100183.84;;;22.36;59.40
57904;BME280;43720;47.462;19.030;2022-09-09T08:57:57;100189.69;;;22.45;58.08
57904;BME280;43720;47.462;19.030;2022-09-09T09:04:15;100189.13;;;22.61;60.81
57904;BME280;43720;47.462;19.030;2022-09-09T09:11:04;100192.50;;;22.66;59.57
57904;BME280;43720;47.462;19.030;2022-09-09T09:14:18;100187.16;;;22.66;60.48
57904;BME280;43720;47.462;19.030;2022-09-09T09:17:27;100190.22;;;22.79;62.08
57904;BME280;43720;47.462;19.030;2022-09-09T09:20:58;100191.50;;;22.92;63.88
57904;BME280;43720;47.462;19.030;2022-09-09T09:24:35;100187.72;;;22.98;59.83
57904;BME280;43720;47.462;19.030;2022-09-09T09:31:11;100166.22;;;23.02;60.55
57904;BME280;43720;47.462;19.030;2022-09-09T09:34:14;100159.37;;;23.17;59.05
57904;BME280;43720;47.462;19.030;2022-09-09T09:37:32;100158.84;;;23.09;56.01
57904;BME280;43720;47.462;19.030;2022-09-09T09:40:49;100156.16;;;23.09;56.45
57904;BME280;43720;47.462;19.030;2022-09-09T09:43:54;100164.91;;;23.12;57.54
57904;BME280;43720;47.462;19.030;2022-09-09T09:50:19;100168.69;;;23.29;57.85
57904;BME280;43720;47.462;19.030;2022-09-09T09:53:28;100164.88;;;23.34;54.77
57904;BME280;43720;47.462;19.030;2022-09-09T09:56:31;100157.69;;;23.36;50.98
57904;BME280;43720;47.462;19.030;2022-09-09T09:59:36;100154.09;;;23.58;49.54
57904;BME280;43720;47.462;19.030;2022-09-09T10:02:42;100159.72;;;23.74;48.17
57904;BME280;43720;47.462;19.030;2022-09-09T10:05:47;100153.34;;;23.97;48.14
57904;BME280;43720;47.462;19.030;2022-09-09T10:08:50;100143.34;;;24.02;47.30
57904;BME280;43720;47.462;19.030;2022-09-09T10:12:11;100147.66;;;24.04;48.73
57904;BME280;43720;47.462;19.030;2022-09-09T10:15:53;100138.72;;;24.05;46.84
57904;BME280;43720;47.462;19.030;2022-09-09T10:19:12;100142.66;;;24.17;45.77
57904;BME280;43720;47.462;19.030;2022-09-09T10:22:26;100138.22;;;24.16;40.69
57904;BME280;43720;47.462;19.030;2022-09-09T10:25:31;100137.31;;;24.17;42.80
57904;BME280;43720;47.462;19.030;2022-09-09T10:32:37;100142.59;;;24.37;44.14
57904;BME280;43720;47.462;19.030;2022-09-09T10:39:03;100146.41;;;24.71;43.87
57904;BME280;43720;47.462;19.030;2022-09-09T10:42:09;100139.88;;;24.58;40.78
57904;BME280;43720;47.462;19.030;2022-09-09T10:45:20;100143.78;;;24.70;41.65
57904;BME280;43720;47.462;19.030;2022-09-09T10:58:00;100135.50;;;24.93;39.11
57904;BME280;43720;47.462;19.030;2022-09-09T11:01:12;100132.78;;;24.95;37.57
57904;BME280;43720;47.462;19.030;2022-09-09T11:04:25;100137.53;;;25.07;39.50
57904;BME280;43720;47.462;19.030;2022-09-09T11:07:38;100133.13;;;25.06;38.96
57904;BME280;43720;47.462;19.030;2022-09-09T11:10:46;100131.72;;;25.16;40.19
57904;BME280;43720;47.462;19.030;2022-09-09T11:14:12;100126.19;;;25.21;38.78
57904;BME280;43720;47.462;19.030;2022-09-09T11:17:22;100128.69;;;25.24;38.91
57904;BME280;43720;47.462;19.030;2022-09-09T11:20:26;100124.84;;;25.29;39.71
57904;BME280;43720;47.462;19.030;2022-09-09T11:23:40;100118.53;;;25.30;37.02
57904;BME280;43720;47.462;19.030;2022-09-09T11:26:55;100119.00;;;25.38;39.48
57904;BME280;43720;47.462;19.030;2022-09-09T11:33:58;100130.06;;;25.84;39.73
57904;BME280;43720;47.462;19.030;2022-09-09T11:37:18;100123.25;;;25.77;40.20
57904;BME280;43720;47.462;19.030;2022-09-09T11:40:25;100129.72;;;25.73;39.55
57904;BME280;43720;47.462;19.030;2022-09-09T11:43:34;100131.38;;;25.41;38.72
57904;BME280;43720;47.462;19.030;2022-09-09T11:46:41;100120.59;;;25.25;37.86
57904;BME280;43720;47.462;19.030;2022-09-09T11:49:43;100105.97;;;25.32;40.83
57904;BME280;43720;47.462;19.030;2022-09-09T11:52:48;100114.47;;;25.41;40.95
57904;BME280;43720;47.462;19.030;2022-09-09T11:56:01;100118.63;;;25.46;40.58
57904;BME280;43720;47.462;19.030;2022-09-09T11:59:19;100113.81;;;25.53;39.83
57904;BME280;43720;47.462;19.030;2022-09-09T12:02:24;100115.88;;;25.65;41.40
57904;BME280;43720;47.462;19.030;2022-09-09T12:05:43;100113.81;;;25.70;41.48
57904;BME280;43720;47.462;19.030;2022-09-09T12:08:55;100112.25;;;25.83;41.46
57904;BME280;43720;47.462;19.030;2022-09-09T12:15:21;100123.09;;;25.63;42.93
57904;BME280;43720;47.462;19.030;2022-09-09T12:18:36;100128.47;;;25.46;42.77
57904;BME280;43720;47.462;19.030;2022-09-09T12:24:49;100127.09;;;25.20;43.99
57904;BME280;43720;47.462;19.030;2022-09-09T12:34:40;100113.97;;;25.50;44.31
57904;BME280;43720;47.462;19.030;2022-09-09T12:37:53;100095.94;;;25.36;42.72
57904;BME280;43720;47.462;19.030;2022-09-09T12:40:58;100101.84;;;25.43;42.92
57904;BME280;43720;47.462;19.030;2022-09-09T12:44:06;100098.78;;;25.50;44.78
57904;BME280;43720;47.462;19.030;2022-09-09T12:47:10;100087.50;;;25.44;43.53
57904;BME280;43720;47.462;19.030;2022-09-09T12:50:21;100088.06;;;25.50;44.81
57904;BME280;43720;47.462;19.030;2022-09-09T12:53:26;100085.41;;;25.50;43.93
57904;BME280;43720;47.462;19.030;2022-09-09T12:56:32;100089.78;;;25.51;44.40
57904;BME280;43720;47.462;19.030;2022-09-09T12:59:37;100086.00;;;25.55;44.39
57904;BME280;43720;47.462;19.030;2022-09-09T13:02:48;100080.75;;;25.54;43.15
57904;BME280;43720;47.462;19.030;2022-09-09T13:05:53;100082.72;;;25.50;44.25
57904;BME280;43720;47.462;19.030;2022-09-09T13:08:58;100064.28;;;25.61;42.77
57904;BME280;43720;47.462;19.030;2022-09-09T13:12:01;100057.91;;;25.64;42.42
57904;BME280;43720;47.462;19.030;2022-09-09T13:15:19;100054.81;;;25.72;43.41
57904;BME280;43720;47.462;19.030;2022-09-09T13:18:36;100059.25;;;25.55;42.99
57904;BME280;43720;47.462;19.030;2022-09-09T13:21:40;100063.13;;;25.50;43.09
57904;BME280;43720;47.462;19.030;2022-09-09T13:24:42;100053.31;;;25.66;41.74
57904;BME280;43720;47.462;19.030;2022-09-09T13:28:04;100050.66;;;25.66;40.54
57904;BME280;43720;47.462;19.030;2022-09-09T13:31:23;100046.41;;;25.62;40.41
57904;BME280;43720;47.462;19.030;2022-09-09T13:34:31;100051.28;;;25.71;40.18
57904;BME280;43720;47.462;19.030;2022-09-09T13:37:38;100046.41;;;25.79;40.58
57904;BME280;43720;47.462;19.030;2022-09-09T13:40:54;100042.00;;;25.78;40.12
57904;BME280;43720;47.462;19.030;2022-09-09T13:43:58;100049.22;;;25.76;43.61
57904;BME280;43720;47.462;19.030;2022-09-09T13:50:21;100035.88;;;25.42;38.68
57904;BME280;43720;47.462;19.030;2022-09-09T13:53:25;100026.53;;;25.33;40.08
57904;BME280;43720;47.462;19.030;2022-09-09T13:56:27;100028.62;;;25.44;41.62
57904;BME280;43720;47.462;19.030;2022-09-09T13:59:29;100030.63;;;25.73;41.00
57904;BME280;43720;47.462;19.030;2022-09-09T14:02:52;100021.75;;;25.73;39.40
57904;BME280;43720;47.462;19.030;2022-09-09T14:05:57;100013.75;;;25.89;40.12
57904;BME280;43720;47.462;19.030;2022-09-09T14:08:59;100007.19;;;25.94;38.67
57904;BME280;43720;47.462;19.030;2022-09-09T14:12:02;100007.75;;;25.68;39.06
57904;BME280;43720;47.462;19.030;2022-09-09T14:15:06;99999.84;;;25.49;41.84
57904;BME280;43720;47.462;19.030;2022-09-09T14:18:12;99997.16;;;25.31;39.81
57904;BME280;43720;47.462;19.030;2022-09-09T14:21:15;99993.72;;;25.29;41.27
57904;BME280;43720;47.462;19.030;2022-09-09T14:24:17;99999.06;;;25.12;38.15
57904;BME280;43720;47.462;19.030;2022-09-09T14:27:19;100001.75;;;25.12;38.12
57904;BME280;43720;47.462;19.030;2022-09-09T14:30:22;100001.09;;;25.07;40.09
57904;BME280;43720;47.462;19.030;2022-09-09T14:33:24;99996.50;;;25.10;41.07
57904;BME280;43720;47.462;19.030;2022-09-09T14:36:27;99998.31;;;25.10;41.87
57904;BME280;43720;47.462;19.030;2022-09-09T14:39:29;99996.66;;;25.25;39.83
57904;BME280;43720;47.462;19.030;2022-09-09T14:42:31;99995.84;;;25.40;40.71
57904;BME280;43720;47.462;19.030;2022-09-09T14:45:35;99997.22;;;25.47;40.22
57904;BME280;43720;47.462;19.030;2022-09-09T14:48:38;99990.69;;;25.53;40.00
57904;BME280;43720;47.462;19.030;2022-09-09T14:51:42;99993.84;;;25.44;39.55
57904;BME280;43720;47.462;19.030;2022-09-09T14:54:44;99989.78;;;25.36;39.80
57904;BME280;43720;47.462;19.030;2022-09-09T14:57:46;100000.34;;;25.22;42.54
57904;BME280;43720;47.462;19.030;2022-09-09T15:00:49;100001.75;;;25.12;41.65
57904;BME280;43720;47.462;19.030;2022-09-09T15:03:56;99994.53;;;25.14;41.84
